Details From VIDP - Indira Gandhi Intl
To VQPR - Paro
Flight Number -
Tags Decoded
Created
Modified
Stats Distance 717 nm / 1,327 km
Max Altitude 0 ft / 0 m
Waypoints 6
Social Downloads 18
Likes 0
Share VATSIM

Download

Looking for another format? Having issues loading an existing format? Contact us
Advertisement - Login to hide

Notes

Decoded

Route

VIDP LLK SMR KTM PRO VQPR

ID Type Via Altitude Latitude Longitude Leg Dist Tot Dist Heading (true) Name
O VIDP APT - 0 ft / 0 m 28.57049˚ 77.08804˚ - 0 nm - -
LLK VOR - 0 ft / 0 m 26.76220˚ 80.88047˚ 229 nm 229 nm 117° / 119° LUCKNOW VOR-DME
SMR VOR - 0 ft / 0 m 27.16417˚ 84.98222˚ 220 nm 449 nm 83° / 85° SIMARA VOR-DME
KTM VOR - 0 ft / 0 m 27.67472˚ 85.34917˚ 36 nm 486 nm 32° / 33° KATHMANDU VOR-DME
PRO VOR - 0 ft / 0 m 27.30000˚ 89.50000˚ 222 nm 708 nm 95° / 97° -
O VQPR APT - 0 ft / 0 m 27.41091˚ 89.41972˚ 7 nm 716 nm 327° / 327° -

Altitude Profile

Advertisement - Login to hide

Weather


0- 5 10 15 20 25 30 35+ Temperature / ° C

Clouds and Precipitation
Forecast for 2017-12-11 06:00 UTC. Updated an hour ago

Ground ~20,000 ft ~40,000 ft Winds

VIDP

Details ICAO VIDP (DEL)
Name INDIRA GANDHI INTL
Region India
Timezone Asia/Kolkata (UTC+5.5)
Stats Elevation 777 ft / 237 m (AMSL)
Location 28.566496° 77.103090°
Runways 2
Magnetic Variation 1.216° E

METAR

VIDP 110400Z 00000KT 1100 R28/1500 R29/1400 FU NSC 19/09 Q1016 NOSIG

Decode

TAF

TAF VIDP 102300Z 1100/1206 09003KT 1000 FU FEW100 BECMG 1105/1107 12006KT 2500 HZ FEW040 SCT100 TEMPO 1112/1118 25010G20KT 1200 -TSRA SCT030 FEW035CB BKN090 BECMG 1114/1116 VRB02KT 2000 BR BECMG 1121/1122 00000KT 0800 MIFG BECMG 1204/1206 12006KT 2000 BR HZ FEW040 SCT100

Decode

Departure Runways

ID Width Length Bearing (true) Bearing (mag) Surface Threshold Offset Overrun Length
09 150 ft / 46 m 9,270 ft / 2,826 m 91.50° 90.28° Asphalt 0 ft / 0 m 195 ft / 59 m
10 150 ft / 46 m 12,488 ft / 3,807 m 104.67° 103.45° Asphalt 0 ft / 0 m 880 ft / 268 m
27 150 ft / 46 m 9,270 ft / 2,826 m 271.52° 270.30° Asphalt 499 ft / 152 m 0 ft / 0 m
28 150 ft / 46 m 12,488 ft / 3,807 m 284.69° 283.47° Asphalt 0 ft / 0 m 470 ft / 143 m

VQPR

Details ICAO VQPR (PBH)
Name PARO
Region Bhutan
Timezone Asia/Thimphu (UTC+6.0)
Stats Elevation 7,332 ft / 2,235 m (AMSL)
Location 27.403190° 89.424605°
Runways 1
Magnetic Variation 0.124° E

METAR

VQPR 110330Z 07007KT 9999 SKC 07/M03 Q1027

Decode

TAF

Not found

Destination Runways

ID Width Length Bearing (true) Bearing (mag) Surface Threshold Offset Overrun Length
15 95 ft / 29 m 6,462 ft / 1,970 m 150.65° 150.53° Asphalt 0 ft / 0 m 390 ft / 119 m
33 95 ft / 29 m 6,462 ft / 1,970 m 330.65° 330.53° Asphalt 0 ft / 0 m 217 ft / 66 m

Popular Alternatives